Time;durP1;ratioP1;P1;durP2;ratioP2;P2;SDS_P1;SDS_P2;PMS_P1;PMS_P2;Temp;Humidity;BMP_temperature;BMP_pressure;BME280_temperature;BME280_humidity;BME280_pressure;Samples;Min_cycle;Max_cycle;Signal;HPM_P1;HPM_P2
2023/12/11 00:02:59;;;;;;;1.58;0.98;;;3.80;99.90;;;;;;5306245;23;20222;-89
2023/12/11 00:08:02;;;;;;;1.05;1.05;;;3.90;99.90;;;;;;5127923;23;20250;-86
2023/12/11 00:10:33;;;;;;;0.40;0.40;;;3.90;99.90;;;;;;4991278;24;20262;-83
2023/12/11 00:13:03;;;;;;;1.70;0.98;;;3.90;99.90;;;;;;5149537;23;20292;-87
2023/12/11 00:15:33;;;;;;;0.75;0.75;;;4.10;99.90;;;;;;5360249;23;20512;-85
2023/12/11 00:18:03;;;;;;;0.40;0.40;;;3.80;99.90;;;;;;4931284;29;20259;-83
2023/12/11 00:20:39;;;;;;;0.60;0.60;;;3.70;99.90;;;;;;5162254;23;20268;-88
2023/12/11 00:23:08;;;;;;;0.52;0.52;;;3.90;99.90;;;;;;4900554;23;20222;-83
2023/12/11 00:25:57;;;;;;;1.15;1.15;;;3.90;99.90;;;;;;5364725;22;20691;-88
2023/12/11 00:28:26;;;;;;;1.13;1.02;;;3.90;99.90;;;;;;5085104;28;20198;-90
2023/12/11 00:30:57;;;;;;;1.35;1.30;;;3.80;99.90;;;;;;5265374;22;20250;-88
2023/12/11 00:33:28;;;;;;;2.15;1.35;;;4.10;99.90;;;;;;5113170;28;20190;-88
2023/12/11 00:35:56;;;;;;;0.73;0.73;;;4.00;99.90;;;;;;5114475;28;20203;-86
2023/12/11 00:38:25;;;;;;;0.40;0.40;;;3.90;99.90;;;;;;5107708;28;20195;-86
2023/12/11 00:40:56;;;;;;;0.50;0.50;;;3.80;99.90;;;;;;5107809;28;20230;-87
2023/12/11 00:43:23;;;;;;;1.23;1.23;;;3.80;99.90;;;;;;5092620;28;20796;-87
2023/12/11 00:46:14;;;;;;;0.40;0.40;;;3.90;99.90;;;;;;5103282;28;20194;-88
2023/12/11 00:48:44;;;;;;;0.88;0.88;;;3.90;99.90;;;;;;5112984;28;20191;-88
2023/12/11 00:51:21;;;;;;;1.15;1.05;;;3.90;99.90;;;;;;5113603;28;20207;-87
2023/12/11 00:53:51;;;;;;;4.22;2.25;;;3.80;99.90;;;;;;5113492;28;20183;-86
2023/12/11 00:56:18;;;;;;;1.23;1.17;;;3.80;99.90;;;;;;5106770;28;20203;-84
2023/12/11 00:58:51;;;;;;;0.50;0.50;;;3.90;99.90;;;;;;5099256;28;20211;-85
2023/12/11 01:01:21;;;;;;;1.20;1.20;;;3.90;99.90;;;;;;5099916;28;20213;-87
2023/12/11 01:03:49;;;;;;;0.40;0.40;;;4.10;99.90;;;;;;5103914;28;20269;-87
2023/12/11 01:06:17;;;;;;;0.93;0.93;;;3.90;99.90;;;;;;5106581;28;20634;-86
2023/12/11 01:08:45;;;;;;;1.15;1.15;;;4.00;99.90;;;;;;5101919;28;20218;-83
2023/12/11 01:11:18;;;;;;;0.75;0.75;;;4.10;99.90;;;;;;5268957;22;20303;-84
2023/12/11 01:13:56;;;;;;;1.17;1.10;;;4.00;99.90;;;;;;5391704;22;20240;-83
2023/12/11 01:16:23;;;;;;;0.50;0.50;;;4.00;99.90;;;;;;5392175;22;20307;-85
2023/12/11 01:21:22;;;;;;;0.98;0.98;;;3.90;99.90;;;;;;5139547;23;20242;-87
2023/12/11 01:23:56;;;;;;;0.70;0.70;;;3.80;99.90;;;;;;5071575;28;20232;-88
2023/12/11 01:26:33;;;;;;;0.40;0.40;;;4.00;99.90;;;;;;5275504;22;20258;-88
2023/12/11 01:29:03;;;;;;;0.60;0.60;;;4.10;99.90;;;;;;5096554;28;20211;-84
2023/12/11 01:31:31;;;;;;;0.40;0.40;;;4.10;99.90;;;;;;5094673;28;20301;-82
2023/12/11 01:34:05;;;;;;;1.45;1.35;;;3.90;99.90;;;;;;5103462;28;20398;-82
2023/12/11 01:36:33;;;;;;;5.95;2.60;;;3.90;99.90;;;;;;5090369;28;20219;-83
2023/12/11 01:39:01;;;;;;;0.50;0.50;;;3.60;99.90;;;;;;5094507;28;20387;-84
2023/12/11 01:41:29;;;;;;;0.60;0.60;;;3.70;99.90;;;;;;5088835;28;20200;-81
2023/12/11 01:43:57;;;;;;;0.50;0.50;;;3.80;99.90;;;;;;5082756;28;20214;-84
2023/12/11 01:46:26;;;;;;;0.73;0.73;;;3.70;99.90;;;;;;5083007;28;20227;-87
2023/12/11 01:49:03;;;;;;;0.50;0.50;;;3.60;99.90;;;;;;5086787;28;20196;-82
2023/12/11 01:51:31;;;;;;;0.60;0.60;;;3.70;99.90;;;;;;5098181;28;20233;-82
2023/12/11 01:53:58;;;;;;;0.40;0.40;;;3.70;99.90;;;;;;5102401;28;20207;-83
2023/12/11 01:56:25;;;;;;;0.93;0.93;;;3.60;99.90;;;;;;5097196;28;20507;-86
2023/12/11 01:58:53;;;;;;;0.50;0.50;;;3.50;99.90;;;;;;5089760;28;20253;-85
2023/12/11 02:01:25;;;;;;;1.52;1.52;;;3.60;99.90;;;;;;5093977;28;20206;-83
2023/12/11 02:03:52;;;;;;;0.50;0.50;;;3.70;99.90;;;;;;5107290;28;20196;-84
2023/12/11 02:06:21;;;;;;;0.75;0.75;;;3.70;99.90;;;;;;5102588;28;20214;-83
2023/12/11 02:08:48;;;;;;;0.75;0.75;;;3.60;99.90;;;;;;5104834;28;20192;-83
2023/12/11 02:11:15;;;;;;;1.52;1.52;;;3.70;99.90;;;;;;5094298;28;20222;-88
2023/12/11 02:13:43;;;;;;;1.05;1.05;;;4.00;99.90;;;;;;5097961;28;20206;-82
2023/12/11 02:16:16;;;;;;;0.60;0.60;;;3.90;99.90;;;;;;5101553;28;20242;-84
2023/12/11 02:18:44;;;;;;;0.60;0.60;;;3.80;99.90;;;;;;5099767;28;20214;-88
2023/12/11 02:21:14;;;;;;;1.00;1.00;;;3.90;99.90;;;;;;5088853;28;20754;-87
2023/12/11 02:23:59;;;;;;;0.55;0.55;;;3.80;99.90;;;;;;5084227;28;20203;-85
2023/12/11 02:26:29;;;;;;;0.68;0.68;;;3.80;99.90;;;;;;5088162;28;20208;-87
2023/12/11 02:28:58;;;;;;;1.58;1.48;;;3.70;99.90;;;;;;5092330;28;20222;-86
2023/12/11 02:31:29;;;;;;;1.05;1.05;;;3.80;99.90;;;;;;5093330;28;20549;-85
2023/12/11 02:33:58;;;;;;;1.00;1.00;;;3.90;99.90;;;;;;5090967;28;20207;-85
2023/12/11 02:36:30;;;;;;;0.50;0.50;;;3.90;99.90;;;;;;5088631;28;20539;-84
2023/12/11 02:38:59;;;;;;;1.40;1.30;;;4.00;99.90;;;;;;5097758;28;20195;-85
2023/12/11 02:41:28;;;;;;;0.90;0.90;;;3.80;99.90;;;;;;5094660;28;20203;-87
2023/12/11 02:44:01;;;;;;;0.40;0.40;;;3.80;99.90;;;;;;5083230;28;20215;-84
2023/12/11 02:46:28;;;;;;;0.68;0.68;;;3.90;99.90;;;;;;5087595;28;20246;-84
2023/12/11 02:48:56;;;;;;;0.60;0.60;;;4.00;99.90;;;;;;5092076;28;20227;-85
2023/12/11 02:51:23;;;;;;;1.23;1.23;;;4.10;99.90;;;;;;5096116;28;20198;-81
2023/12/11 02:53:54;;;;;;;0.40;0.40;;;4.00;99.90;;;;;;5103496;28;20203;-88
2023/12/11 02:56:23;;;;;;;0.88;0.88;;;3.90;99.90;;;;;;5093844;28;20207;-85
2023/12/11 02:58:50;;;;;;;0.55;0.55;;;3.90;99.90;;;;;;5096581;28;20209;-85
2023/12/11 03:01:18;;;;;;;0.60;0.60;;;3.90;99.90;;;;;;5100108;28;20245;-88
2023/12/11 03:03:51;;;;;;;0.50;0.50;;;3.90;99.90;;;;;;5090242;28;20651;-90
2023/12/11 03:06:20;;;;;;;0.40;0.40;;;4.00;99.90;;;;;;5086561;28;20280;-81
2023/12/11 03:08:48;;;;;;;0.40;0.40;;;4.00;99.90;;;;;;5090349;28;20487;-82
2023/12/11 03:11:18;;;;;;;0.50;0.50;;;4.00;99.90;;;;;;5076669;28;20223;-84
2023/12/11 03:13:45;;;;;;;0.68;0.68;;;4.10;99.90;;;;;;5098752;28;20244;-85
2023/12/11 03:16:15;;;;;;;10.95;4.00;;;3.90;99.90;;;;;;5096742;28;20273;-82
2023/12/11 03:18:44;;;;;;;1.25;1.25;;;4.00;99.90;;;;;;5083840;28;20215;-82
2023/12/11 03:21:16;;;;;;;1.35;1.35;;;4.10;99.90;;;;;;5074696;28;20260;-85
2023/12/11 03:23:45;;;;;;;0.40;0.40;;;4.10;99.90;;;;;;5090849;28;20203;-88
2023/12/11 03:26:20;;;;;;;5.45;1.83;;;3.90;99.90;;;;;;5088267;28;20455;-87
2023/12/11 03:28:47;;;;;;;0.40;0.40;;;3.90;99.90;;;;;;5103321;28;20281;-83
2023/12/11 03:31:16;;;;;;;0.60;0.60;;;3.90;99.90;;;;;;5101077;28;20548;-86
2023/12/11 03:33:46;;;;;;;1.70;1.60;;;4.00;99.90;;;;;;5104969;28;20262;-86
2023/12/11 03:36:19;;;;;;;0.88;0.88;;;3.90;99.90;;;;;;5093855;28;20214;-82
2023/12/11 03:38:46;;;;;;;0.40;0.40;;;4.00;99.90;;;;;;5093655;28;20238;-80
2023/12/11 03:41:13;;;;;;;1.48;1.38;;;4.00;99.90;;;;;;5106114;28;20194;-81
2023/12/11 03:43:42;;;;;;;0.63;0.63;;;4.00;99.90;;;;;;5111379;28;20206;-80
2023/12/11 03:46:13;;;;;;;3.90;3.45;;;4.10;99.90;;;;;;5096947;28;20226;-87
2023/12/11 03:48:42;;;;;;;0.80;0.80;;;4.00;99.90;;;;;;5092565;28;20201;-83
2023/12/11 03:51:14;;;;;;;1.67;1.58;;;3.90;99.90;;;;;;5099131;28;20200;-88
2023/12/11 03:53:41;;;;;;;0.40;0.40;;;3.90;99.90;;;;;;5341099;22;20311;-85
2023/12/11 03:56:11;;;;;;;1.40;1.30;;;3.90;99.90;;;;;;5159418;22;20573;-80
2023/12/11 03:58:39;;;;;;;2.80;2.53;;;4.00;99.90;;;;;;5102325;28;20307;-87
2023/12/11 04:01:10;;;;;;;0.98;0.98;;;3.90;99.90;;;;;;5107798;28;20183;-80
2023/12/11 04:03:37;;;;;;;1.67;1.48;;;3.80;99.90;;;;;;5112517;28;20218;-85
2023/12/11 04:06:05;;;;;;;0.70;0.70;;;3.70;99.90;;;;;;5091805;28;20576;-84
2023/12/11 04:08:32;;;;;;;0.40;0.40;;;3.90;99.90;;;;;;5092973;28;20214;-87
2023/12/11 04:11:00;;;;;;;0.40;0.40;;;3.80;99.90;;;;;;5100516;28;20207;-88
2023/12/11 04:13:28;;;;;;;1.05;0.95;;;3.70;99.90;;;;;;5102515;28;20207;-88
2023/12/11 04:15:55;;;;;;;0.95;0.95;;;3.80;99.90;;;;;;5092796;28;20254;-87
2023/12/11 04:18:25;;;;;;;0.52;0.52;;;3.80;99.90;;;;;;5087394;28;20284;-86
2023/12/11 04:20:52;;;;;;;0.40;0.40;;;3.90;99.90;;;;;;5081524;28;20253;-87
2023/12/11 04:23:21;;;;;;;0.50;0.50;;;3.90;99.90;;;;;;5090940;28;20357;-89
2023/12/11 04:25:48;;;;;;;1.02;0.98;;;3.80;99.90;;;;;;5089294;28;20231;-84
2023/12/11 04:28:15;;;;;;;3.38;3.05;;;3.80;99.90;;;;;;5100599;28;20195;-84
2023/12/11 04:30:43;;;;;;;0.40;0.40;;;4.00;99.90;;;;;;5105003;28;20192;-84
2023/12/11 04:33:11;;;;;;;0.45;0.45;;;3.80;99.90;;;;;;5091271;28;20199;-85
2023/12/11 04:35:39;;;;;;;0.40;0.40;;;3.80;99.90;;;;;;5086868;28;20215;-84
2023/12/11 04:38:06;;;;;;;0.40;0.40;;;3.80;99.90;;;;;;5087387;28;20195;-87
2023/12/11 04:40:36;;;;;;;0.60;0.60;;;3.90;99.90;;;;;;5096191;28;20203;-86
2023/12/11 04:43:03;;;;;;;0.30;0.30;;;3.80;99.90;;;;;;5075322;28;20736;-83
2023/12/11 04:45:30;;;;;;;1.05;0.95;;;3.80;99.90;;;;;;5102026;28;20223;-85
2023/12/11 04:47:58;;;;;;;2.45;2.25;;;3.80;99.90;;;;;;5090579;28;20218;-82
2023/12/11 04:50:28;;;;;;;0.38;0.38;;;3.80;99.90;;;;;;5092065;28;20244;-87
2023/12/11 04:53:00;;;;;;;0.40;0.40;;;3.90;99.90;;;;;;5092516;28;20203;-85
2023/12/11 04:55:27;;;;;;;0.60;0.60;;;4.00;99.90;;;;;;5093395;28;20195;-83
2023/12/11 04:57:59;;;;;;;0.40;0.40;;;4.10;99.90;;;;;;5109963;28;20282;-87
2023/12/11 05:00:40;;;;;;;0.40;0.40;;;4.00;99.90;;;;;;5168310;22;20233;-83
2023/12/11 05:03:09;;;;;;;0.50;0.50;;;4.10;99.90;;;;;;5016259;28;20218;-88
2023/12/11 05:05:38;;;;;;;0.40;0.40;;;4.20;99.90;;;;;;5022263;28;20264;-87
2023/12/11 05:08:09;;;;;;;0.60;0.60;;;4.20;99.90;;;;;;5018483;28;20197;-89
2023/12/11 05:10:36;;;;;;;0.40;0.40;;;4.20;99.90;;;;;;5014571;28;20461;-84
2023/12/11 05:13:03;;;;;;;0.40;0.40;;;4.40;99.90;;;;;;5173267;23;20371;-81
2023/12/11 05:18:18;;;;;;;0.40;0.40;;;4.30;99.90;;;;;;4952854;28;20382;-84
2023/12/11 05:20:48;;;;;;;0.43;0.43;;;4.30;99.90;;;;;;5147775;22;20221;-85
2023/12/11 05:23:15;;;;;;;0.40;0.40;;;4.30;99.90;;;;;;5284927;22;20259;-86
2023/12/11 05:25:42;;;;;;;0.40;0.40;;;4.40;99.90;;;;;;5131773;22;20230;-88
2023/12/11 05:28:11;;;;;;;0.40;0.40;;;4.60;99.90;;;;;;5019039;28;20200;-80
2023/12/11 05:30:41;;;;;;;0.40;0.40;;;4.60;99.90;;;;;;5015246;28;20214;-84
2023/12/11 05:33:12;;;;;;;0.40;0.40;;;4.80;99.90;;;;;;5003464;28;20249;-81
2023/12/11 05:35:40;;;;;;;0.40;0.40;;;4.90;99.90;;;;;;5005942;28;20233;-84
2023/12/11 05:38:08;;;;;;;0.50;0.50;;;5.10;99.90;;;;;;5007634;28;20273;-85
2023/12/11 05:40:39;;;;;;;0.73;0.73;;;5.20;99.90;;;;;;5013310;28;20205;-83
2023/12/11 05:43:06;;;;;;;0.40;0.40;;;5.00;99.90;;;;;;5007121;28;20210;-80
2023/12/11 05:45:34;;;;;;;0.40;0.40;;;4.90;99.90;;;;;;5015118;28;20241;-85
2023/12/11 05:48:01;;;;;;;0.40;0.40;;;5.10;99.90;;;;;;5006776;28;20274;-84
2023/12/11 05:50:29;;;;;;;0.40;0.40;;;5.10;99.90;;;;;;5020308;28;20209;-79
2023/12/11 05:53:01;;;;;;;0.90;0.90;;;5.10;99.90;;;;;;5007797;28;20587;-88
2023/12/11 05:55:28;;;;;;;0.40;0.40;;;5.00;99.90;;;;;;5033764;23;20258;-85
2023/12/11 05:57:55;;;;;;;0.43;0.43;;;4.90;99.90;;;;;;5039818;28;20227;-80
2023/12/11 06:00:24;;;;;;;0.77;0.77;;;4.90;99.90;;;;;;5265775;22;20287;-80
2023/12/11 06:02:51;;;;;;;0.40;0.40;;;5.00;99.90;;;;;;5023970;28;20206;-87
2023/12/11 06:05:19;;;;;;;0.50;0.50;;;5.20;99.90;;;;;;5019013;28;20226;-86
2023/12/11 06:07:47;;;;;;;0.77;0.77;;;5.00;99.90;;;;;;5018163;28;20198;-84
2023/12/11 06:10:14;;;;;;;1.25;1.25;;;5.10;99.90;;;;;;5019598;28;20190;-86
2023/12/11 06:12:41;;;;;;;0.40;0.40;;;5.00;99.90;;;;;;5030178;28;20217;-87
2023/12/11 06:15:09;;;;;;;5.20;4.80;;;5.00;99.90;;;;;;5026959;28;20228;-85
2023/12/11 06:17:36;;;;;;;0.50;0.50;;;5.00;99.90;;;;;;5028705;28;20229;-83
2023/12/11 06:20:07;;;;;;;0.40;0.40;;;4.80;99.90;;;;;;5029918;28;20201;-86
2023/12/11 06:22:34;;;;;;;0.40;0.40;;;4.80;99.90;;;;;;5156903;23;20243;-86
2023/12/11 06:25:02;;;;;;;0.40;0.40;;;4.70;99.90;;;;;;5130239;23;20219;-87
2023/12/11 06:27:30;;;;;;;0.80;0.80;;;4.70;99.90;;;;;;5042051;28;20279;-86
2023/12/11 06:29:58;;;;;;;0.40;0.40;;;4.50;99.90;;;;;;5034838;28;20285;-84
2023/12/11 06:32:25;;;;;;;0.40;0.40;;;4.50;99.90;;;;;;5044848;28;20211;-86
2023/12/11 06:34:52;;;;;;;0.40;0.40;;;4.40;99.90;;;;;;5055212;28;20212;-85
2023/12/11 06:37:20;;;;;;;0.85;0.85;;;4.40;99.90;;;;;;5146097;23;20236;-80
2023/12/11 06:39:48;;;;;;;0.88;0.88;;;4.50;99.90;;;;;;5033394;23;20238;-82
2023/12/11 06:42:16;;;;;;;4.90;1.35;;;4.60;99.90;;;;;;5022157;28;20218;-85
2023/12/11 06:44:44;;;;;;;0.40;0.40;;;4.50;99.90;;;;;;5017840;28;20625;-86
2023/12/11 06:49:47;;;;;;;1.00;0.90;;;4.60;99.90;;;;;;5004375;28;20263;-85
2023/12/11 06:52:15;;;;;;;0.80;0.80;;;4.40;99.90;;;;;;5019649;28;20206;-82
2023/12/11 06:54:43;;;;;;;0.40;0.40;;;4.40;99.90;;;;;;5083189;22;20253;-87
2023/12/11 06:57:11;;;;;;;0.40;0.40;;;4.40;99.90;;;;;;5005292;28;20234;-82
2023/12/11 06:59:39;;;;;;;0.65;0.65;;;4.40;99.90;;;;;;5009091;28;20237;-86
2023/12/11 07:02:06;;;;;;;0.45;0.45;;;4.20;99.90;;;;;;5007133;28;20206;-87
2023/12/11 07:04:33;;;;;;;0.50;0.50;;;4.30;99.90;;;;;;5005518;28;20207;-86
2023/12/11 07:07:01;;;;;;;0.70;0.70;;;4.30;99.90;;;;;;5007363;28;20240;-87
2023/12/11 07:09:29;;;;;;;0.88;0.88;;;4.60;99.90;;;;;;5005632;28;20257;-83
2023/12/11 07:11:56;;;;;;;0.40;0.40;;;4.50;99.90;;;;;;5004022;28;20305;-86
2023/12/11 07:14:24;;;;;;;0.40;0.40;;;4.60;99.90;;;;;;5006421;28;20220;-87
2023/12/11 07:16:51;;;;;;;0.73;0.73;;;4.70;99.90;;;;;;5005385;28;20205;-84
2023/12/11 07:19:21;;;;;;;0.47;0.47;;;4.70;99.90;;;;;;5004722;28;20375;-86
2023/12/11 07:21:49;;;;;;;0.47;0.47;;;4.80;99.90;;;;;;5004106;28;20210;-85
2023/12/11 07:24:16;;;;;;;0.50;0.50;;;4.80;99.90;;;;;;5004274;28;20206;-82
2023/12/11 07:26:43;;;;;;;0.88;0.88;;;4.70;99.90;;;;;;4998217;28;20462;-81
2023/12/11 07:29:10;;;;;;;0.40;0.40;;;5.10;99.90;;;;;;5005058;28;20202;-86
2023/12/11 07:31:39;;;;;;;0.75;0.75;;;5.00;99.90;;;;;;5004260;28;20471;-87
2023/12/11 07:34:07;;;;;;;0.50;0.50;;;5.20;99.90;;;;;;5006613;28;20206;-82
2023/12/11 07:36:34;;;;;;;0.70;0.70;;;5.40;99.90;;;;;;5000921;28;20210;-84
2023/12/11 07:39:05;;;;;;;0.50;0.50;;;5.50;99.90;;;;;;5006384;28;20387;-83
2023/12/11 07:41:34;;;;;;;0.40;0.40;;;5.50;99.90;;;;;;5004358;28;20200;-87
2023/12/11 07:44:02;;;;;;;0.40;0.40;;;5.50;99.90;;;;;;5000469;28;20217;-82
2023/12/11 07:46:30;;;;;;;0.40;0.40;;;5.50;99.90;;;;;;5004245;28;20456;-85
2023/12/11 07:48:57;;;;;;;1.23;1.13;;;5.50;99.90;;;;;;5006161;28;20541;-80
2023/12/11 07:51:25;;;;;;;0.57;0.57;;;5.60;99.90;;;;;;5006182;28;20209;-85
2023/12/11 07:53:54;;;;;;;0.40;0.40;;;5.60;99.90;;;;;;5006798;28;20413;-83
2023/12/11 07:56:23;;;;;;;0.75;0.75;;;5.60;99.90;;;;;;5003966;28;20300;-82
2023/12/11 07:58:51;;;;;;;0.40;0.40;;;5.70;99.90;;;;;;5002121;28;20270;-80
2023/12/11 08:01:19;;;;;;;0.40;0.40;;;5.80;99.90;;;;;;5000992;28;20498;-82
2023/12/11 08:03:47;;;;;;;0.93;0.93;;;5.80;99.90;;;;;;5001394;28;20261;-82
2023/12/11 08:06:14;;;;;;;0.70;0.70;;;5.80;99.90;;;;;;5004692;28;20265;-83
2023/12/11 08:08:43;;;;;;;0.80;0.80;;;5.70;99.90;;;;;;5003628;28;20217;-84
2023/12/11 08:11:22;;;;;;;0.60;0.60;;;5.70;99.90;;;;;;5003642;28;20304;-82
2023/12/11 08:13:49;;;;;;;1.50;1.35;;;5.80;99.90;;;;;;5002819;28;20213;-84
2023/12/11 08:16:16;;;;;;;0.50;0.50;;;5.90;99.90;;;;;;5002910;28;20277;-86
2023/12/11 08:18:44;;;;;;;0.40;0.40;;;6.00;99.90;;;;;;5002693;28;20225;-83
2023/12/11 08:21:12;;;;;;;0.45;0.45;;;6.00;99.90;;;;;;5001149;28;20513;-83
2023/12/11 08:23:40;;;;;;;1.02;1.02;;;6.10;99.90;;;;;;5002862;28;20489;-81
2023/12/11 08:26:09;;;;;;;0.60;0.60;;;5.90;99.90;;;;;;5003270;28;20344;-81
2023/12/11 08:28:36;;;;;;;0.50;0.50;;;5.90;99.90;;;;;;5003539;28;20241;-83
2023/12/11 08:31:05;;;;;;;0.45;0.45;;;5.90;99.90;;;;;;5003356;28;20205;-81
2023/12/11 08:33:32;;;;;;;0.40;0.40;;;6.00;99.90;;;;;;5000193;28;20751;-78
2023/12/11 08:36:01;;;;;;;0.50;0.50;;;6.20;99.90;;;;;;5002673;28;20217;-82
2023/12/11 08:38:28;;;;;;;0.50;0.50;;;6.20;99.90;;;;;;5002475;28;20202;-84
2023/12/11 08:40:55;;;;;;;0.50;0.50;;;6.10;99.90;;;;;;5000192;28;20261;-84
2023/12/11 08:43:22;;;;;;;0.50;0.50;;;6.30;99.90;;;;;;5000131;28;20293;-86
2023/12/11 08:45:50;;;;;;;0.40;0.40;;;6.30;99.90;;;;;;5002726;28;20600;-81
2023/12/11 08:48:17;;;;;;;0.40;0.40;;;6.40;99.90;;;;;;5005616;28;20271;-83
2023/12/11 08:50:44;;;;;;;0.50;0.50;;;6.40;99.90;;;;;;4999852;28;20198;-85
2023/12/11 08:53:11;;;;;;;0.50;0.50;;;6.40;99.90;;;;;;5014070;28;20229;-81
2023/12/11 08:55:39;;;;;;;0.50;0.50;;;6.60;99.90;;;;;;5013015;28;20229;-78
2023/12/11 08:58:06;;;;;;;0.50;0.50;;;6.60;99.90;;;;;;5013197;28;20190;-80
2023/12/11 09:00:33;;;;;;;0.50;0.50;;;6.80;99.90;;;;;;5005762;28;20277;-79
2023/12/11 09:03:00;;;;;;;0.50;0.50;;;6.80;99.90;;;;;;5006429;28;20365;-81
2023/12/11 09:05:27;;;;;;;1.10;1.10;;;6.80;99.90;;;;;;5005517;28;20238;-84
2023/12/11 09:07:57;;;;;;;0.40;0.40;;;6.90;99.90;;;;;;5006808;28;20221;-82
2023/12/11 09:10:24;;;;;;;0.60;0.60;;;6.70;99.90;;;;;;5007711;28;20252;-82
2023/12/11 09:12:53;;;;;;;0.50;0.50;;;6.60;99.90;;;;;;5006477;28;20281;-81
2023/12/11 09:15:20;;;;;;;0.50;0.50;;;6.80;99.90;;;;;;5011089;28;20206;-80
2023/12/11 09:17:48;;;;;;;1.08;1.08;;;6.90;99.90;;;;;;5009927;28;20213;-82
2023/12/11 09:20:15;;;;;;;1.15;1.15;;;7.10;99.90;;;;;;5009503;28;20257;-81
2023/12/11 09:22:42;;;;;;;0.50;0.50;;;7.20;99.90;;;;;;5010862;28;20499;-80
2023/12/11 09:25:09;;;;;;;0.50;0.50;;;7.20;99.90;;;;;;5008861;28;20186;-81
2023/12/11 09:27:37;;;;;;;0.43;0.43;;;7.00;99.90;;;;;;5007270;28;20237;-80
2023/12/11 09:30:11;;;;;;;0.43;0.43;;;7.20;99.90;;;;;;5008879;28;20237;-83
2023/12/11 09:32:38;;;;;;;0.40;0.40;;;6.90;99.90;;;;;;5002981;28;20229;-83
2023/12/11 09:35:07;;;;;;;1.90;1.80;;;7.10;99.90;;;;;;5005696;28;20213;-80
2023/12/11 09:37:34;;;;;;;0.60;0.60;;;7.10;99.90;;;;;;5002489;28;20406;-86
2023/12/11 09:40:01;;;;;;;0.50;0.50;;;7.20;99.90;;;;;;5001629;28;20285;-80
2023/12/11 09:42:30;;;;;;;0.50;0.50;;;7.10;99.90;;;;;;5004048;28;20210;-81
2023/12/11 09:44:59;;;;;;;0.50;0.50;;;7.10;99.90;;;;;;5003582;28;20202;-85
2023/12/11 09:47:38;;;;;;;0.50;0.50;;;7.20;99.90;;;;;;5003983;28;20289;-88
2023/12/11 09:50:06;;;;;;;0.50;0.50;;;7.20;99.90;;;;;;5001019;28;20198;-80
2023/12/11 09:52:38;;;;;;;0.50;0.50;;;7.40;99.90;;;;;;5003541;28;20199;-85
2023/12/11 09:55:06;;;;;;;0.60;0.60;;;7.30;99.90;;;;;;5004315;28;20277;-87
2023/12/11 09:57:34;;;;;;;0.50;0.50;;;7.30;99.90;;;;;;5004807;28;20383;-78
2023/12/11 10:00:03;;;;;;;0.50;0.50;;;7.30;99.90;;;;;;5014592;28;20191;-83
2023/12/11 10:02:33;;;;;;;0.93;0.93;;;7.10;99.90;;;;;;5014803;28;20221;-84
2023/12/11 10:05:11;;;;;;;0.50;0.50;;;7.00;99.90;;;;;;5016015;28;20237;-83
2023/12/11 10:07:41;;;;;;;2.92;2.72;;;7.00;99.90;;;;;;5002148;28;20462;-81
2023/12/11 10:10:30;;;;;;;0.50;0.50;;;6.90;99.90;;;;;;5003707;28;20202;-78
2023/12/11 10:12:58;;;;;;;0.50;0.50;;;6.80;99.90;;;;;;5004320;28;20395;-84
2023/12/11 10:15:32;;;;;;;1.48;1.42;;;6.80;99.90;;;;;;5003327;28;20217;-80
2023/12/11 10:18:01;;;;;;;0.40;0.40;;;6.80;99.90;;;;;;5001727;28;20220;-79
2023/12/11 10:20:28;;;;;;;0.40;0.40;;;6.90;99.90;;;;;;5002254;28;20223;-82
2023/12/11 10:22:56;;;;;;;0.40;0.40;;;6.90;99.90;;;;;;4990226;28;20242;-80
2023/12/11 10:25:29;;;;;;;0.40;0.40;;;6.90;99.90;;;;;;5003410;28;20206;-83
2023/12/11 10:28:08;;;;;;;0.50;0.50;;;7.20;99.90;;;;;;4998443;28;20226;-83
2023/12/11 10:31:02;;;;;;;0.73;0.73;;;7.40;99.90;;;;;;5004181;28;20202;-83
2023/12/11 10:33:33;;;;;;;0.50;0.50;;;7.40;99.90;;;;;;4993621;28;20214;-78
2023/12/11 10:36:11;;;;;;;0.60;0.60;;;7.50;99.90;;;;;;4995175;28;20292;-86
2023/12/11 10:38:39;;;;;;;0.50;0.50;;;7.60;99.90;;;;;;5002742;28;20233;-82
2023/12/11 10:41:06;;;;;;;0.50;0.50;;;7.30;99.90;;;;;;5004394;28;20322;-81
2023/12/11 10:43:43;;;;;;;0.60;0.60;;;7.30;99.90;;;;;;5005657;28;20194;-81
2023/12/11 10:46:31;;;;;;;0.50;0.50;;;7.70;99.90;;;;;;5005688;28;20399;-80
2023/12/11 10:49:01;;;;;;;0.60;0.60;;;7.70;99.90;;;;;;4993954;28;20380;-80
2023/12/11 10:51:29;;;;;;;0.50;0.50;;;7.60;99.90;;;;;;5003550;28;20198;-82
2023/12/11 10:53:56;;;;;;;0.50;0.50;;;7.70;99.90;;;;;;5004202;28;20229;-81
2023/12/11 10:56:26;;;;;;;0.43;0.43;;;7.70;99.90;;;;;;5004853;28;20194;-83
2023/12/11 10:58:53;;;;;;;2.55;1.95;;;7.80;99.90;;;;;;5003380;28;20206;-82
2023/12/11 11:01:21;;;;;;;0.60;0.60;;;7.80;99.90;;;;;;5003434;28;20261;-82
2023/12/11 11:03:49;;;;;;;2.28;2.08;;;7.80;99.90;;;;;;5007238;28;20249;-82
2023/12/11 11:06:19;;;;;;;0.70;0.70;;;8.00;99.90;;;;;;5013173;28;20201;-81
2023/12/11 11:09:00;;;;;;;0.50;0.50;;;8.10;99.90;;;;;;5011205;28;20208;-83
2023/12/11 11:11:35;;;;;;;0.50;0.50;;;8.00;99.90;;;;;;5012828;28;20245;-80
2023/12/11 11:14:17;;;;;;;0.60;0.60;;;8.00;99.90;;;;;;5004768;28;20233;-84
2023/12/11 11:16:55;;;;;;;0.95;0.95;;;8.00;99.90;;;;;;5000438;28;20214;-87
2023/12/11 11:19:24;;;;;;;1.23;1.23;;;8.10;99.90;;;;;;5003130;28;20216;-79
2023/12/11 11:22:18;;;;;;;0.60;0.60;;;8.20;99.90;;;;;;5003258;28;20221;-87
2023/12/11 11:25:29;;;;;;;1.05;1.05;;;8.40;99.90;;;;;;5004068;28;20213;-84
2023/12/11 11:27:57;;;;;;;0.98;0.98;;;8.20;99.90;;;;;;4993644;28;20297;-83
2023/12/11 11:30:44;;;;;;;1.08;1.05;;;8.20;99.90;;;;;;5001030;28;20206;-85
2023/12/11 11:33:12;;;;;;;0.60;0.60;;;8.40;99.90;;;;;;4995260;28;20206;-86
2023/12/11 11:35:45;;;;;;;0.50;0.50;;;8.50;99.90;;;;;;5002355;28;20336;-79
2023/12/11 11:38:13;;;;;;;2.00;1.88;;;8.60;99.90;;;;;;5000652;28;20240;-84
2023/12/11 11:40:43;;;;;;;0.60;0.60;;;8.40;99.90;;;;;;5001884;28;20353;-81
2023/12/11 11:43:11;;;;;;;0.60;0.60;;;8.40;99.90;;;;;;5001670;28;20273;-84
2023/12/11 11:45:38;;;;;;;0.93;0.93;;;8.30;99.90;;;;;;5000467;28;20540;-82
2023/12/11 11:48:06;;;;;;;0.60;0.60;;;8.50;99.90;;;;;;4996854;28;20241;-82
2023/12/11 11:50:35;;;;;;;0.80;0.80;;;8.40;99.90;;;;;;4999458;28;20213;-85
2023/12/11 11:53:08;;;;;;;0.50;0.50;;;8.40;99.90;;;;;;5002729;28;20206;-83
2023/12/11 11:55:38;;;;;;;0.60;0.60;;;8.40;99.90;;;;;;5001706;28;20229;-84
2023/12/11 11:58:15;;;;;;;2.70;1.90;;;8.50;99.90;;;;;;4998060;28;20210;-81
2023/12/11 12:00:43;;;;;;;0.68;0.68;;;8.40;99.90;;;;;;5001195;28;20213;-84
2023/12/11 12:03:11;;;;;;;0.65;0.65;;;8.30;99.90;;;;;;5003146;28;20214;-84
2023/12/11 12:05:55;;;;;;;0.70;0.70;;;8.30;99.90;;;;;;5001771;28;20220;-84
2023/12/11 12:08:23;;;;;;;0.50;0.50;;;8.30;99.90;;;;;;4985598;28;20363;-81
2023/12/11 12:10:56;;;;;;;0.50;0.50;;;8.30;99.90;;;;;;5007445;28;20196;-81
2023/12/11 12:13:23;;;;;;;1.40;1.25;;;8.40;99.90;;;;;;5014059;28;20255;-82
2023/12/11 12:15:52;;;;;;;0.50;0.50;;;8.40;99.90;;;;;;5014347;28;20201;-86
2023/12/11 12:18:20;;;;;;;0.50;0.50;;;8.30;99.90;;;;;;5003647;28;20301;-85
2023/12/11 12:21:01;;;;;;;0.50;0.50;;;8.30;99.90;;;;;;5001107;28;20241;-84
2023/12/11 12:23:29;;;;;;;0.95;0.95;;;8.10;99.90;;;;;;4997450;28;20361;-82
2023/12/11 12:25:59;;;;;;;0.50;0.50;;;8.20;99.90;;;;;;5001736;28;20277;-84
2023/12/11 12:28:27;;;;;;;1.02;1.02;;;8.20;99.90;;;;;;4996850;28;20334;-85
2023/12/11 12:30:54;;;;;;;0.50;0.50;;;8.30;99.90;;;;;;5002369;28;20214;-83
2023/12/11 12:33:22;;;;;;;0.80;0.80;;;8.10;99.90;;;;;;5002844;28;20221;-81
2023/12/11 12:35:49;;;;;;;0.93;0.93;;;8.10;99.90;;;;;;5002562;28;20216;-82
2023/12/11 12:38:18;;;;;;;1.08;1.08;;;8.00;99.90;;;;;;5004254;28;20237;-83
2023/12/11 12:40:45;;;;;;;0.80;0.80;;;7.80;99.90;;;;;;5003642;28;20270;-81
2023/12/11 12:43:13;;;;;;;0.60;0.60;;;7.70;99.90;;;;;;5003299;28;20290;-84
2023/12/11 12:45:41;;;;;;;0.55;0.55;;;7.80;99.90;;;;;;5002980;28;20502;-83
2023/12/11 12:48:09;;;;;;;1.38;1.27;;;7.80;99.90;;;;;;4997801;28;20228;-81
2023/12/11 12:50:37;;;;;;;0.80;0.80;;;7.70;99.90;;;;;;5003880;28;20211;-81
2023/12/11 12:53:10;;;;;;;0.70;0.70;;;7.60;99.90;;;;;;5001769;28;20232;-85
2023/12/11 12:55:41;;;;;;;1.67;1.50;;;7.60;99.90;;;;;;4999462;28;20454;-81
2023/12/11 12:58:08;;;;;;;0.75;0.75;;;7.50;99.90;;;;;;5005733;28;20206;-83
2023/12/11 13:00:36;;;;;;;0.50;0.50;;;7.40;99.90;;;;;;5004639;28;20237;-79
2023/12/11 13:03:07;;;;;;;0.50;0.50;;;7.60;99.90;;;;;;5008867;28;20190;-85
2023/12/11 13:05:45;;;;;;;1.23;1.13;;;7.50;99.90;;;;;;5005298;28;20207;-84
2023/12/11 13:08:16;;;;;;;1.05;1.05;;;7.50;99.90;;;;;;5007222;28;20225;-80
2023/12/11 13:10:56;;;;;;;0.50;0.50;;;7.50;99.90;;;;;;5004460;28;20194;-82
2023/12/11 13:13:25;;;;;;;0.50;0.50;;;7.60;99.90;;;;;;5004748;28;20202;-83
2023/12/11 13:15:55;;;;;;;0.50;0.50;;;7.50;99.90;;;;;;5012271;28;20323;-79
2023/12/11 13:18:22;;;;;;;0.50;0.50;;;7.50;99.90;;;;;;5005713;28;20194;-83
2023/12/11 13:20:50;;;;;;;0.50;0.50;;;7.40;99.90;;;;;;4997645;28;20198;-80
2023/12/11 13:23:18;;;;;;;1.02;1.02;;;7.50;99.90;;;;;;5001091;28;20210;-82